Time;durP1;ratioP1;P1;durP2;ratioP2;P2;SDS_P1;SDS_P2;PMS_P1;PMS_P2;Temp;Humidity;BMP_temperature;BMP_pressure;BME280_temperature;BME280_humidity;BME280_pressure;Samples;Min_cycle;Max_cycle;Signal;HPM_P1;HPM_P2
2022/05/05 00:00:44;;;;;;;8.50;4.70;;;10.20;99.90;;;;;;5046595;28;20152;-61
2022/05/05 00:03:09;;;;;;;11.27;4.90;;;10.20;99.90;;;;;;5046304;28;20025;-61
2022/05/05 00:05:35;;;;;;;7.70;3.95;;;10.20;99.90;;;;;;5046734;28;20021;-61
2022/05/05 00:08:00;;;;;;;9.63;4.75;;;10.20;99.90;;;;;;5049684;28;20472;-61
2022/05/05 00:15:54;;;;;;;6.47;3.78;;;10.10;99.90;;;;;;5049785;28;20090;-61
2022/05/05 00:18:20;;;;;;;11.00;5.07;;;10.10;99.90;;;;;;5049287;28;20045;-60
2022/05/05 00:20:46;;;;;;;9.48;4.38;;;10.10;99.90;;;;;;5049311;28;20029;-61
2022/05/05 00:23:11;;;;;;;8.07;4.18;;;10.00;99.90;;;;;;5049192;28;20036;-60
2022/05/05 00:25:37;;;;;;;9.63;4.68;;;10.00;99.90;;;;;;5049262;28;20481;-60
2022/05/05 00:28:03;;;;;;;7.68;4.65;;;10.00;99.90;;;;;;5051294;28;20035;-60
2022/05/05 00:30:29;;;;;;;9.13;4.65;;;10.00;99.90;;;;;;5053319;28;20025;-60
2022/05/05 00:32:54;;;;;;;7.00;4.57;;;9.90;99.90;;;;;;5053353;28;20401;-60
2022/05/05 00:35:20;;;;;;;9.07;4.15;;;9.90;99.90;;;;;;5053046;28;20385;-60
2022/05/05 00:37:45;;;;;;;6.93;4.30;;;9.80;99.90;;;;;;5052763;28;20067;-60
2022/05/05 00:40:11;;;;;;;8.25;4.05;;;9.80;99.90;;;;;;5036753;28;20029;-62
2022/05/05 00:42:38;;;;;;;7.97;3.63;;;9.70;99.90;;;;;;5032885;28;20151;-60
2022/05/05 00:45:04;;;;;;;6.22;3.67;;;9.60;99.90;;;;;;5032717;28;20512;-61
2022/05/05 00:47:29;;;;;;;8.10;4.25;;;9.60;99.90;;;;;;5033000;28;20709;-61
2022/05/05 00:49:59;;;;;;;8.73;4.50;;;9.50;99.90;;;;;;5032909;28;20032;-60
2022/05/05 00:52:27;;;;;;;6.47;3.72;;;9.40;99.90;;;;;;5032685;28;20032;-61
2022/05/05 00:54:56;;;;;;;8.82;4.35;;;9.30;99.90;;;;;;5035912;28;20112;-60
2022/05/05 00:57:22;;;;;;;6.97;3.53;;;9.30;99.90;;;;;;5052507;28;20068;-60
2022/05/05 00:59:50;;;;;;;7.13;3.38;;;9.30;99.90;;;;;;5052735;28;20036;-60
2022/05/05 01:02:16;;;;;;;5.38;2.85;;;9.30;99.90;;;;;;5050569;28;20100;-60
2022/05/05 01:04:42;;;;;;;6.07;3.53;;;9.30;99.90;;;;;;5049038;28;20055;-60
2022/05/05 01:07:08;;;;;;;5.47;3.10;;;9.20;99.90;;;;;;5050854;28;20032;-60
2022/05/05 01:09:35;;;;;;;8.13;3.72;;;9.30;99.90;;;;;;5052402;28;20021;-60
2022/05/05 01:12:02;;;;;;;5.75;3.78;;;9.20;99.90;;;;;;5052239;28;20033;-60
2022/05/05 01:14:29;;;;;;;5.45;3.42;;;9.10;99.90;;;;;;5052107;28;20061;-60
2022/05/05 01:16:55;;;;;;;6.93;3.60;;;9.00;99.90;;;;;;5052217;28;20032;-61
2022/05/05 01:19:20;;;;;;;8.13;3.70;;;9.00;99.90;;;;;;5052252;28;20029;-60
2022/05/05 01:21:53;;;;;;;8.80;4.00;;;9.00;99.90;;;;;;5052194;28;20063;-60
2022/05/05 01:28:10;;;;;;;9.07;4.00;;;8.90;99.90;;;;;;5052031;28;20033;-60
2022/05/05 01:29:51;;;;;;;5.53;3.38;;;8.80;99.90;;;;;;5032381;28;20121;-60
2022/05/05 01:32:17;;;;;;;6.43;3.30;;;8.80;99.90;;;;;;5030882;28;20029;-60
2022/05/05 01:34:43;;;;;;;8.45;3.95;;;8.80;99.90;;;;;;5031994;28;20478;-60
2022/05/05 01:37:09;;;;;;;6.85;3.42;;;8.80;99.90;;;;;;5031904;28;20045;-60
2022/05/05 01:39:34;;;;;;;6.05;3.42;;;8.70;99.90;;;;;;5031264;28;20108;-60
2022/05/05 01:42:00;;;;;;;6.18;3.58;;;8.70;99.90;;;;;;5031581;28;20414;-60
2022/05/05 01:44:25;;;;;;;6.68;3.63;;;8.70;99.90;;;;;;5031636;28;20486;-60
2022/05/05 01:46:55;;;;;;;8.90;3.83;;;8.70;99.90;;;;;;5045482;28;20049;-60
2022/05/05 01:49:21;;;;;;;5.68;3.50;;;8.70;99.90;;;;;;5047352;28;20033;-60
2022/05/05 01:51:46;;;;;;;8.57;4.13;;;8.60;99.90;;;;;;5048506;28;20029;-61
2022/05/05 01:54:12;;;;;;;6.00;3.22;;;8.60;99.90;;;;;;5048313;28;20441;-60
2022/05/05 01:56:38;;;;;;;6.70;3.30;;;8.60;99.90;;;;;;5047964;28;20071;-60
2022/05/05 01:59:04;;;;;;;7.03;3.72;;;8.60;99.90;;;;;;5048254;28;20029;-60
2022/05/05 02:01:29;;;;;;;11.38;4.40;;;8.60;99.90;;;;;;5048683;28;20028;-61
2022/05/05 02:03:55;;;;;;;7.75;3.97;;;8.50;99.90;;;;;;5047739;28;20025;-60
2022/05/05 02:06:21;;;;;;;8.10;3.97;;;8.50;99.90;;;;;;5051378;28;20021;-60
2022/05/05 02:08:48;;;;;;;6.70;3.47;;;8.50;99.90;;;;;;5051193;28;20374;-60
2022/05/05 02:11:14;;;;;;;5.95;3.28;;;8.50;99.90;;;;;;5051118;28;20485;-60
2022/05/05 02:13:39;;;;;;;7.25;3.72;;;8.50;99.90;;;;;;5051304;28;20071;-60
2022/05/05 02:16:05;;;;;;;7.05;3.55;;;8.50;99.90;;;;;;5051220;28;20033;-60
2022/05/05 02:18:31;;;;;;;8.07;3.70;;;8.40;99.90;;;;;;5051132;28;20037;-60
2022/05/05 02:20:56;;;;;;;8.27;3.65;;;8.50;99.90;;;;;;5051300;28;20395;-60
2022/05/05 02:23:23;;;;;;;7.18;3.55;;;8.50;99.90;;;;;;5051286;28;20115;-60
2022/05/05 02:25:48;;;;;;;8.73;4.03;;;8.50;99.90;;;;;;5048924;28;20063;-60
2022/05/05 02:28:14;;;;;;;10.18;4.22;;;8.50;99.90;;;;;;5047769;28;20049;-60
2022/05/05 02:30:40;;;;;;;6.43;3.38;;;8.40;99.90;;;;;;5047819;28;20029;-61
2022/05/05 02:33:05;;;;;;;10.02;4.15;;;8.40;99.90;;;;;;5047910;28;20044;-60
2022/05/05 02:35:31;;;;;;;5.90;3.50;;;8.40;99.90;;;;;;5049066;28;20021;-60
2022/05/05 02:40:41;;;;;;;10.02;3.78;;;8.40;99.90;;;;;;5050555;28;20116;-61
2022/05/05 02:43:07;;;;;;;9.90;4.53;;;8.30;99.90;;;;;;5050458;28;20123;-61
2022/05/05 02:45:32;;;;;;;8.20;4.32;;;8.30;99.90;;;;;;5045460;28;20051;-61
2022/05/05 02:47:59;;;;;;;6.00;3.58;;;8.30;99.90;;;;;;5030581;28;20051;-62
2022/05/05 02:50:24;;;;;;;8.60;4.07;;;8.30;99.90;;;;;;5029752;28;20025;-61
2022/05/05 02:52:50;;;;;;;7.20;3.58;;;8.20;99.90;;;;;;5030622;28;20048;-61
2022/05/05 02:55:16;;;;;;;7.00;3.53;;;8.20;99.90;;;;;;5035602;28;20135;-62
2022/05/05 02:57:41;;;;;;;9.57;3.75;;;8.10;99.90;;;;;;5050045;28;20040;-61
2022/05/05 03:00:12;;;;;;;6.70;3.50;;;8.10;99.90;;;;;;5050356;28;20100;-62
2022/05/05 03:02:41;;;;;;;;;;;8.10;99.90;;;;;;5050714;28;20128;-61
2022/05/05 03:05:09;;;;;;;4.78;3.08;;;8.10;99.90;;;;;;5049651;28;19908;-61
2022/05/05 03:07:35;;;;;;;7.63;3.65;;;8.10;99.90;;;;;;5050430;28;20025;-61
2022/05/05 03:10:00;;;;;;;7.80;4.60;;;8.00;99.90;;;;;;5050033;28;20021;-61
2022/05/05 03:12:26;;;;;;;6.47;3.30;;;8.00;99.90;;;;;;5050226;28;20040;-61
2022/05/05 03:14:52;;;;;;;6.55;3.45;;;8.00;99.90;;;;;;5050308;28;20063;-61
2022/05/05 03:17:17;;;;;;;8.70;3.92;;;8.00;99.90;;;;;;5050207;28;20044;-61
2022/05/05 03:19:43;;;;;;;8.68;3.55;;;8.00;99.90;;;;;;5050213;28;20017;-61
2022/05/05 03:22:09;;;;;;;6.10;3.53;;;8.00;99.90;;;;;;5050176;28;20029;-62
2022/05/05 03:24:35;;;;;;;7.07;3.55;;;8.00;99.90;;;;;;5049876;28;20028;-61
2022/05/05 03:27:01;;;;;;;7.47;4.40;;;8.00;99.90;;;;;;5049821;28;20021;-61
2022/05/05 03:29:27;;;;;;;7.95;3.70;;;8.00;99.90;;;;;;5050038;28;20025;-61
2022/05/05 03:31:53;;;;;;;6.28;3.28;;;8.00;99.90;;;;;;5049919;28;20393;-61
2022/05/05 03:34:20;;;;;;;6.80;2.85;;;8.00;99.90;;;;;;5050191;28;20556;-61
2022/05/05 03:36:45;;;;;;;6.28;3.42;;;7.90;99.90;;;;;;5050020;28;20103;-61
2022/05/05 03:39:11;;;;;;;4.53;2.78;;;7.90;99.90;;;;;;5049746;28;20412;-61
2022/05/05 03:41:37;;;;;;;7.22;3.15;;;7.90;99.90;;;;;;5049436;28;20033;-61
2022/05/05 03:44:04;;;;;;;11.15;4.43;;;7.80;99.90;;;;;;5049687;28;20037;-61
2022/05/05 03:46:30;;;;;;;6.82;3.63;;;7.80;99.90;;;;;;5049560;28;20055;-61
2022/05/05 03:48:56;;;;;;;5.03;2.97;;;7.80;99.90;;;;;;5049886;28;20024;-61
2022/05/05 03:51:22;;;;;;;6.63;3.30;;;7.80;99.90;;;;;;5049818;28;20025;-61
2022/05/05 03:53:48;;;;;;;7.00;3.47;;;7.80;99.90;;;;;;5049517;28;20100;-61
2022/05/05 03:56:13;;;;;;;6.07;3.50;;;7.70;99.90;;;;;;5049417;28;20086;-61
2022/05/05 03:58:39;;;;;;;8.35;3.20;;;7.70;99.90;;;;;;5049620;28;20048;-61
2022/05/05 04:01:05;;;;;;;7.88;3.38;;;7.70;99.90;;;;;;5050104;28;20382;-61
2022/05/05 04:03:30;;;;;;;6.45;3.08;;;7.70;99.90;;;;;;5053860;28;20032;-61
2022/05/05 04:06:03;;;;;;;6.53;2.88;;;7.70;99.90;;;;;;5053577;28;20028;-61
2022/05/05 04:08:30;;;;;;;10.63;3.97;;;7.60;99.90;;;;;;5053736;28;20484;-61
2022/05/05 04:10:56;;;;;;;6.05;3.30;;;7.60;99.90;;;;;;5053744;28;20029;-61
2022/05/05 04:13:22;;;;;;;6.13;4.05;;;7.60;99.90;;;;;;5053721;28;20021;-61
2022/05/05 04:15:48;;;;;;;6.68;3.45;;;7.60;99.90;;;;;;5052484;28;20040;-61
2022/05/05 04:18:14;;;;;;;4.68;2.92;;;7.60;99.90;;;;;;5050134;28;20116;-61
2022/05/05 04:20:42;;;;;;;5.78;3.30;;;7.60;99.90;;;;;;5050890;28;20042;-61
2022/05/05 04:23:08;;;;;;;8.50;3.85;;;7.60;99.90;;;;;;5053113;28;20513;-61
2022/05/05 04:25:35;;;;;;;6.72;3.40;;;7.60;99.90;;;;;;5053108;28;20031;-61
2022/05/05 04:28:01;;;;;;;7.18;3.70;;;7.60;99.90;;;;;;5053419;28;20406;-61
2022/05/05 04:30:26;;;;;;;5.10;3.08;;;7.60;99.90;;;;;;5053090;28;20533;-61
2022/05/05 04:32:52;;;;;;;7.22;3.55;;;7.60;99.90;;;;;;5050063;28;20049;-61
2022/05/05 04:35:18;;;;;;;6.13;3.42;;;7.60;99.90;;;;;;5050061;28;20027;-60
2022/05/05 04:37:44;;;;;;;6.63;3.50;;;7.60;99.90;;;;;;5050779;28;20370;-61
2022/05/05 04:40:10;;;;;;;7.20;3.40;;;7.60;99.90;;;;;;5051571;28;20013;-61
2022/05/05 04:42:39;;;;;;;7.93;4.32;;;7.70;99.90;;;;;;5052594;28;20436;-61
2022/05/05 04:45:06;;;;;;;6.70;3.78;;;7.70;99.90;;;;;;5052923;28;20052;-61
2022/05/05 04:47:34;;;;;;;6.32;3.35;;;7.80;99.90;;;;;;5053157;28;20029;-61
2022/05/05 04:50:00;;;;;;;7.20;3.25;;;7.80;99.90;;;;;;5052891;28;20033;-61
2022/05/05 04:52:26;;;;;;;8.63;3.95;;;7.80;99.90;;;;;;5040926;28;20018;-62
2022/05/05 04:54:52;;;;;;;7.05;3.25;;;7.90;99.90;;;;;;5035735;28;20033;-61
2022/05/05 04:57:18;;;;;;;10.32;4.40;;;7.90;99.90;;;;;;5052374;28;20397;-61
2022/05/05 04:59:44;;;;;;;7.15;3.28;;;8.00;99.90;;;;;;5052597;28;20025;-61
2022/05/05 05:02:10;;;;;;;8.35;4.47;;;8.10;99.90;;;;;;5049933;28;20041;-61
2022/05/05 05:04:35;;;;;;;5.88;3.97;;;8.10;99.90;;;;;;5049360;28;20033;-61
2022/05/05 05:07:01;;;;;;;7.78;3.85;;;8.10;99.90;;;;;;5050177;28;20090;-61
2022/05/05 05:09:27;;;;;;;9.43;3.75;;;8.10;99.90;;;;;;5051904;28;20029;-61
2022/05/05 05:11:52;;;;;;;7.57;3.50;;;8.20;99.90;;;;;;5049246;28;20400;-61
2022/05/05 05:14:18;;;;;;;8.13;4.30;;;8.30;99.90;;;;;;5048661;28;20057;-61
2022/05/05 05:16:43;;;;;;;6.93;3.63;;;8.40;99.90;;;;;;5050116;28;20029;-61
2022/05/05 05:19:09;;;;;;;6.90;3.60;;;8.40;99.90;;;;;;5052182;28;20393;-61
2022/05/05 05:21:35;;;;;;;8.70;3.25;;;8.50;99.90;;;;;;5051127;28;20394;-61
2022/05/05 05:24:02;;;;;;;7.97;4.20;;;8.60;99.90;;;;;;5048969;28;20394;-61
2022/05/05 05:26:28;;;;;;;7.05;4.07;;;8.70;99.90;;;;;;5049339;28;20509;-61
2022/05/05 05:28:54;;;;;;;7.82;3.88;;;8.70;99.90;;;;;;5052179;28;20083;-61
2022/05/05 05:31:21;;;;;;;5.97;3.20;;;8.90;99.90;;;;;;5051051;28;20048;-61
2022/05/05 05:33:50;;;;;;;7.97;3.47;;;8.90;99.90;;;;;;5048788;28;20041;-61
2022/05/05 05:36:16;;;;;;;8.27;4.07;;;9.00;99.90;;;;;;5049185;28;20021;-61
2022/05/05 05:38:42;;;;;;;8.63;2.97;;;9.10;99.90;;;;;;5051904;28;20435;-61
2022/05/05 05:41:08;;;;;;;7.47;3.70;;;9.20;99.90;;;;;;5051359;28;20086;-61
2022/05/05 05:43:35;;;;;;;7.70;3.70;;;9.30;99.90;;;;;;5051628;28;20076;-61
2022/05/05 05:46:00;;;;;;;6.40;3.30;;;9.40;99.90;;;;;;5051599;28;20021;-61
2022/05/05 05:48:26;;;;;;;8.95;4.25;;;9.50;99.90;;;;;;5048521;28;20112;-61
2022/05/05 05:50:52;;;;;;;8.18;3.47;;;9.60;99.90;;;;;;5048741;28;20443;-61
2022/05/05 05:53:17;;;;;;;7.70;4.18;;;9.70;99.90;;;;;;5051875;28;20438;-61
2022/05/05 05:55:43;;;;;;;7.07;3.47;;;9.80;99.90;;;;;;5051385;28;20403;-61
2022/05/05 05:58:08;;;;;;;8.90;4.18;;;9.90;99.90;;;;;;5051133;28;20040;-61
2022/05/05 06:00:34;;;;;;;6.15;3.38;;;10.00;99.90;;;;;;5050944;28;20074;-61
2022/05/05 06:05:45;;;;;;;8.43;3.28;;;10.20;99.90;;;;;;5048187;28;20051;-61
2022/05/05 06:08:11;;;;;;;8.02;3.35;;;10.30;99.90;;;;;;5049166;28;20557;-61
2022/05/05 06:10:37;;;;;;;7.22;3.45;;;10.40;99.90;;;;;;5051315;28;20108;-61
2022/05/05 06:13:03;;;;;;;8.25;3.88;;;10.50;99.90;;;;;;5050023;28;20083;-60
2022/05/05 06:15:29;;;;;;;8.13;3.92;;;10.60;99.90;;;;;;5048186;28;20387;-61
2022/05/05 06:17:56;;;;;;;10.00;3.67;;;10.80;99.90;;;;;;5048129;28;20116;-61
2022/05/05 06:20:21;;;;;;;9.40;4.65;;;10.80;99.90;;;;;;5051103;28;20093;-61
2022/05/05 06:22:47;;;;;;;7.50;3.75;;;11.00;99.90;;;;;;5050907;28;20028;-61
2022/05/05 06:25:13;;;;;;;6.88;3.55;;;11.10;99.90;;;;;;5051081;28;20017;-61
2022/05/05 06:27:39;;;;;;;8.27;3.58;;;11.20;99.90;;;;;;5050503;28;20037;-60
2022/05/05 06:30:07;;;;;;;7.18;3.80;;;11.30;99.90;;;;;;5050657;28;20052;-61
2022/05/05 06:32:32;;;;;;;7.68;3.80;;;11.50;99.90;;;;;;5050494;28;20064;-61
2022/05/05 06:34:58;;;;;;;6.78;3.47;;;11.60;99.90;;;;;;5051084;28;20052;-61
2022/05/05 06:37:24;;;;;;;5.72;3.45;;;11.70;99.90;;;;;;5050485;28;20070;-61
2022/05/05 06:39:50;;;;;;;8.55;3.50;;;11.90;99.90;;;;;;5050461;28;20025;-61
2022/05/05 06:42:16;;;;;;;5.15;3.22;;;12.00;99.90;;;;;;5050283;28;20040;-61
2022/05/05 06:44:42;;;;;;;8.57;3.42;;;12.20;99.90;;;;;;5050523;28;20049;-61
2022/05/05 06:47:08;;;;;;;5.60;3.28;;;12.30;99.90;;;;;;5050633;28;20036;-61
2022/05/05 06:49:34;;;;;;;8.02;3.55;;;12.50;99.90;;;;;;5050667;28;20032;-61
2022/05/05 06:52:00;;;;;;;5.40;3.40;;;12.60;99.90;;;;;;5050162;28;20386;-61
2022/05/05 06:54:29;;;;;;;7.47;3.63;;;12.70;99.90;;;;;;5050086;28;20029;-61
2022/05/05 06:56:56;;;;;;;5.43;3.20;;;12.90;99.90;;;;;;5042691;28;20125;-60
2022/05/05 06:59:22;;;;;;;5.60;3.22;;;13.10;99.90;;;;;;5030106;28;20033;-61
2022/05/05 07:01:54;;;;;;;5.63;3.00;;;13.30;99.90;;;;;;5028311;28;20044;-60
2022/05/05 07:07:04;;;;;;;4.93;3.10;;;13.50;99.90;;;;;;5028263;28;20103;-60
2022/05/05 07:12:15;;;;;;;5.00;3.28;;;13.90;99.90;;;;;;5028482;28;20386;-59
2022/05/05 07:14:40;;;;;;;4.18;2.40;;;14.10;99.90;;;;;;5043780;28;20029;-60
2022/05/05 07:17:08;;;;;;;5.18;2.83;;;14.20;99.90;;;;;;5048266;28;20067;-59
2022/05/05 07:19:33;;;;;;;5.20;2.83;;;14.60;99.90;;;;;;5050260;28;20025;-62
2022/05/05 07:21:59;;;;;;;5.18;3.10;;;14.90;99.90;;;;;;5050037;28;20143;-59
2022/05/05 07:24:25;;;;;;;4.90;3.15;;;15.00;99.90;;;;;;5049961;28;20091;-59
2022/05/05 07:26:50;;;;;;;4.35;2.80;;;15.30;99.90;;;;;;5049632;28;20055;-59
2022/05/05 07:29:16;;;;;;;2.97;1.92;;;16.30;99.90;;;;;;5049797;28;20037;-60
2022/05/05 07:31:42;;;;;;;3.40;2.05;;;16.80;99.90;;;;;;5049976;28;20029;-59
2022/05/05 07:34:08;;;;;;;4.45;2.30;;;16.80;99.90;;;;;;5049667;28;20021;-60
2022/05/05 07:36:33;;;;;;;2.20;1.75;;;17.00;99.90;;;;;;5049047;28;20024;-59
2022/05/05 07:38:59;;;;;;;2.53;1.75;;;17.40;99.90;;;;;;5049538;28;20033;-60
2022/05/05 07:41:25;;;;;;;3.67;2.80;;;17.60;99.90;;;;;;5049881;28;20017;-60
2022/05/05 07:43:50;;;;;;;3.30;2.03;;;17.60;99.90;;;;;;5049517;28;20456;-60
2022/05/05 07:46:19;;;;;;;2.00;1.45;;;17.80;99.90;;;;;;5049061;28;20028;-60
2022/05/05 07:48:45;;;;;;;3.28;2.00;;;18.60;99.90;;;;;;5049695;28;20038;-60
2022/05/05 07:51:11;;;;;;;4.40;2.30;;;19.60;99.10;;;;;;5049448;28;20029;-60
2022/05/05 07:53:37;;;;;;;2.50;1.90;;;20.20;96.70;;;;;;5049719;28;20036;-60
2022/05/05 07:56:03;;;;;;;2.63;1.92;;;20.20;95.50;;;;;;5049281;28;20025;-60
2022/05/05 07:58:29;;;;;;;4.25;1.50;;;20.50;95.00;;;;;;5049658;28;20083;-60
2022/05/05 08:00:54;;;;;;;3.67;1.95;;;21.00;95.00;;;;;;5049812;28;20035;-60
2022/05/05 08:03:20;;;;;;;4.18;2.00;;;21.90;91.60;;;;;;5049696;28;20079;-60
2022/05/05 08:05:45;;;;;;;2.35;1.80;;;21.90;89.30;;;;;;5039900;28;20086;-60
2022/05/05 08:08:11;;;;;;;2.75;2.05;;;22.00;87.10;;;;;;5040721;28;20039;-60
2022/05/05 08:10:38;;;;;;;1.80;1.50;;;22.50;88.20;;;;;;5049321;28;20112;-60
2022/05/05 08:13:03;;;;;;;1.80;1.50;;;22.80;81.90;;;;;;5049176;28;20051;-60
2022/05/05 08:15:30;;;;;;;2.90;1.63;;;22.70;76.90;;;;;;5049838;28;20020;-61
2022/05/05 08:17:55;;;;;;;2.15;1.80;;;22.50;83.60;;;;;;5049473;28;20501;-61
2022/05/05 08:20:22;;;;;;;1.70;1.60;;;23.00;80.30;;;;;;5049079;28;20025;-61
2022/05/05 08:22:47;;;;;;;2.63;1.88;;;23.40;71.30;;;;;;5049311;28;20094;-61
2022/05/05 08:30:41;;;;;;;3.55;1.70;;;23.90;71.70;;;;;;5049455;28;20028;-62
2022/05/05 08:33:07;;;;;;;2.33;1.83;;;24.00;63.40;;;;;;5049529;28;20532;-61
2022/05/05 08:35:33;;;;;;;2.10;1.85;;;24.50;68.10;;;;;;5049330;28;20445;-61
2022/05/05 08:37:58;;;;;;;1.58;1.30;;;24.60;67.00;;;;;;5049002;28;20041;-62
2022/05/05 08:40:26;;;;;;;2.15;1.55;;;26.00;62.60;;;;;;5049195;28;20021;-61
2022/05/05 08:42:53;;;;;;;1.27;1.15;;;26.30;60.80;;;;;;5048978;28;20029;-61
2022/05/05 08:45:19;;;;;;;2.28;1.25;;;26.80;57.10;;;;;;5049038;28;20118;-61
2022/05/05 08:47:47;;;;;;;1.30;1.20;;;27.30;56.80;;;;;;5049250;28;20025;-61
2022/05/05 08:50:14;;;;;;;2.10;1.50;;;28.10;52.20;;;;;;5052787;28;20108;-61
2022/05/05 08:52:48;;;;;;;3.08;1.60;;;28.60;48.30;;;;;;5042966;28;20048;-61
2022/05/05 08:55:16;;;;;;;2.17;1.60;;;28.80;45.90;;;;;;5038694;28;20025;-62
2022/05/05 08:57:42;;;;;;;1.63;1.40;;;28.80;42.70;;;;;;5052437;28;20444;-61
2022/05/05 09:00:10;;;;;;;1.30;1.20;;;29.10;42.30;;;;;;5050934;28;20044;-61
2022/05/05 09:02:36;;;;;;;1.98;1.40;;;29.30;38.80;;;;;;5033685;28;20026;-62
2022/05/05 09:05:03;;;;;;;3.05;2.00;;;29.00;36.10;;;;;;5032518;28;20061;-63
2022/05/05 09:07:51;;;;;;;1.85;1.45;;;29.90;36.60;;;;;;5032507;28;20029;-62
2022/05/05 09:10:20;;;;;;;1.73;1.63;;;27.60;36.70;;;;;;5031787;28;20041;-62
2022/05/05 09:13:00;;;;;;;1.88;1.58;;;26.20;42.20;;;;;;5029195;28;20060;-63
2022/05/05 09:15:35;;;;;;;2.78;1.58;;;24.00;49.90;;;;;;5030156;28;20034;-62
2022/05/05 09:18:20;;;;;;;2.15;1.75;;;22.50;59.10;;;;;;5032603;28;20083;-62
2022/05/05 09:20:48;;;;;;;2.80;1.80;;;21.10;68.90;;;;;;5039219;28;20107;-61
2022/05/05 09:23:30;;;;;;;2.03;1.67;;;20.10;74.20;;;;;;5052177;28;20033;-61
2022/05/05 09:25:56;;;;;;;2.63;2.10;;;20.50;79.10;;;;;;5051894;28;20029;-64
2022/05/05 09:28:24;;;;;;;2.60;1.55;;;23.60;71.20;;;;;;5052068;28;20029;-61
2022/05/05 09:30:51;;;;;;;5.22;1.88;;;26.40;53.60;;;;;;5052164;28;20025;-61
2022/05/05 09:33:38;;;;;;;1.55;1.33;;;28.40;40.40;;;;;;5051850;28;20021;-61
2022/05/05 09:36:13;;;;;;;2.03;1.58;;;30.10;32.30;;;;;;5051615;28;20120;-62
2022/05/05 09:38:50;;;;;;;2.08;1.67;;;29.40;30.00;;;;;;5051623;28;20055;-61
2022/05/05 09:41:16;;;;;;;2.42;1.67;;;27.50;32.70;;;;;;5051370;28;20548;-62
2022/05/05 09:43:42;;;;;;;2.28;1.73;;;25.50;36.20;;;;;;5051731;28;20044;-61
2022/05/05 09:46:23;;;;;;;2.22;1.60;;;23.50;43.10;;;;;;5051897;28;20401;-61
2022/05/05 09:49:09;;;;;;;3.17;1.80;;;21.90;52.80;;;;;;5051643;28;20025;-62
2022/05/05 09:51:37;;;;;;;1.50;1.20;;;20.70;58.10;;;;;;5052137;28;20035;-60
2022/05/05 09:57:52;;;;;;;1.95;1.23;;;20.20;71.50;;;;;;5051377;28;20041;-60
2022/05/05 09:59:50;;;;;;;2.67;1.50;;;19.70;71.10;;;;;;5046138;28;20049;-61
2022/05/05 10:04:00;;;;;;;2.25;1.75;;;19.40;75.90;;;;;;5051697;28;20025;-61
2022/05/05 10:05:15;;;;;;;1.80;1.30;;;19.60;75.60;;;;;;5051372;28;20025;-61
2022/05/05 10:07:44;;;;;;;1.33;1.23;;;20.40;73.00;;;;;;5049195;28;20022;-61
2022/05/05 10:10:15;;;;;;;2.63;1.63;;;23.30;60.40;;;;;;5048060;28;20040;-61
2022/05/05 10:12:41;;;;;;;1.60;1.25;;;27.40;47.10;;;;;;5047668;28;20485;-61
2022/05/05 10:15:09;;;;;;;2.13;1.08;;;30.40;30.60;;;;;;5047901;28;20386;-61
2022/05/05 10:17:35;;;;;;;1.42;1.27;;;30.70;25.40;;;;;;5048239;28;20044;-61
2022/05/05 10:20:03;;;;;;;1.30;1.20;;;28.60;26.90;;;;;;5047848;28;20616;-61
2022/05/05 10:23:02;;;;;;;1.35;1.25;;;26.60;29.50;;;;;;5048390;28;20064;-61
2022/05/05 10:25:32;;;;;;;1.58;1.20;;;24.40;36.20;;;;;;5048110;28;20041;-62
2022/05/05 10:27:59;;;;;;;;;;;25.50;39.30;;;;;;5048939;28;20094;-61
2022/05/05 10:30:35;;;;;;;2.58;1.23;;;26.30;34.40;;;;;;5048609;28;19908;-61
2022/05/05 10:33:08;;;;;;;1.40;1.30;;;30.70;30.10;;;;;;5050273;28;20044;-61
2022/05/05 10:35:48;;;;;;;1.77;1.38;;;33.20;23.90;;;;;;5048096;28;20414;-61
2022/05/05 10:38:42;;;;;;;3.03;1.92;;;34.70;20.20;;;;;;5047821;28;20071;-62
2022/05/05 10:41:37;;;;;;;1.85;1.08;;;36.70;17.50;;;;;;5050400;28;20103;-62
2022/05/05 10:44:18;;;;;;;1.30;1.20;;;37.80;15.70;;;;;;5050655;28;20049;-61
2022/05/05 10:47:03;;;;;;;1.63;1.10;;;38.80;15.20;;;;;;5050951;28;20108;-61
2022/05/05 10:49:37;;;;;;;2.45;1.15;;;37.00;14.60;;;;;;5046812;28;20490;-60
2022/05/05 10:52:11;;;;;;;1.90;1.27;;;37.30;14.80;;;;;;5047484;28;20021;-61
2022/05/05 10:54:38;;;;;;;1.75;1.30;;;37.70;14.70;;;;;;5049917;28;20115;-62
2022/05/05 10:57:25;;;;;;;2.20;1.38;;;38.70;13.80;;;;;;5049520;28;20040;-64
2022/05/05 11:00:14;;;;;;;2.50;1.30;;;39.20;13.50;;;;;;5047329;28;20118;-62
2022/05/05 11:03:01;;;;;;;1.63;1.50;;;39.50;13.10;;;;;;5047244;28;20028;-62
2022/05/05 11:05:28;;;;;;;1.77;0.98;;;37.20;12.30;;;;;;5046803;28;20112;-62
2022/05/05 11:07:55;;;;;;;1.63;1.17;;;38.40;13.10;;;;;;5047306;28;20029;-63
2022/05/05 11:10:46;;;;;;;1.95;1.20;;;38.80;12.80;;;;;;5046867;28;20035;-61
2022/05/05 11:13:38;;;;;;;1.65;1.55;;;36.80;11.30;;;;;;5047305;28;20055;-61
2022/05/05 11:22:25;;;;;;;2.78;1.45;;;30.20;16.50;;;;;;5046775;28;20393;-61
2022/05/05 11:24:53;;;;;;;1.48;1.38;;;31.50;17.30;;;;;;5046985;28;20033;-61
2022/05/05 11:27:24;;;;;;;1.20;1.10;;;28.70;18.60;;;;;;5046567;28;20132;-61
2022/05/05 11:29:57;;;;;;;1.30;1.20;;;27.60;21.80;;;;;;5047025;28;20118;-61
2022/05/05 11:32:33;;;;;;;1.63;1.52;;;31.10;20.20;;;;;;5046831;28;20108;-61
2022/05/05 11:35:00;;;;;;;2.78;1.80;;;31.30;19.30;;;;;;5046607;28;20064;-62
2022/05/05 11:37:26;;;;;;;2.30;1.85;;;29.60;19.90;;;;;;5046288;28;20033;-62
2022/05/05 11:39:52;;;;;;;1.70;1.50;;;27.50;22.00;;;;;;5046525;28;20108;-61
2022/05/05 11:42:18;;;;;;;1.63;1.50;;;28.60;23.50;;;;;;5046488;28;20120;-61
2022/05/05 11:44:46;;;;;;;1.77;1.60;;;27.00;21.60;;;;;;5046407;28;20120;-62
2022/05/05 11:47:20;;;;;;;1.23;1.02;;;29.50;24.40;;;;;;5046681;28;20025;-62
2022/05/05 11:49:51;;;;;;;1.50;1.40;;;32.70;19.10;;;;;;5046500;28;20025;-62
2022/05/05 11:52:25;;;;;;;1.38;1.27;;;35.40;18.20;;;;;;5046612;28;20064;-62
2022/05/05 11:54:53;;;;;;;1.65;1.48;;;32.30;15.00;;;;;;5046254;28;20025;-62
2022/05/05 11:57:36;;;;;;;2.15;1.83;;;30.70;17.70;;;;;;5046624;28;20185;-61
2022/05/05 12:02:49;;;;;;;2.28;1.30;;;30.70;17.00;;;;;;5046926;28;20044;-62
2022/05/05 12:05:16;;;;;;;1.55;1.30;;;30.70;18.30;;;;;;5046576;28;20104;-61
2022/05/05 12:07:46;;;;;;;2.15;1.40;;;29.10;19.00;;;;;;5046329;28;20442;-61
2022/05/05 12:10:14;;;;;;;2.53;1.67;;;26.90;21.30;;;;;;5046226;28;20028;-61
2022/05/05 12:12:44;;;;;;;1.80;1.45;;;25.10;22.70;;;;;;5046112;28;20060;-61
2022/05/05 12:15:11;;;;;;;1.92;1.70;;;24.20;26.20;;;;;;5046263;28;20029;-61
2022/05/05 12:17:49;;;;;;;2.15;1.50;;;28.80;23.60;;;;;;5046395;28;20037;-61
2022/05/05 12:20:17;;;;;;;1.50;1.40;;;32.30;20.00;;;;;;5046327;28;20100;-61
2022/05/05 12:22:44;;;;;;;1.20;1.10;;;33.90;16.10;;;;;;5048224;28;20044;-61
2022/05/05 12:25:15;;;;;;;1.52;1.20;;;36.60;16.50;;;;;;5050415;28;20047;-61
2022/05/05 12:27:53;;;;;;;1.50;1.30;;;37.90;14.80;;;;;;5050176;28;20029;-61
2022/05/05 12:30:40;;;;;;;1.10;1.00;;;37.90;13.90;;;;;;5050056;28;20041;-62
2022/05/05 12:33:08;;;;;;;2.05;1.40;;;38.20;13.80;;;;;;5049933;28;20520;-61
2022/05/05 12:35:39;;;;;;;1.38;1.27;;;35.00;13.10;;;;;;5049980;28;20043;-61
2022/05/05 12:38:06;;;;;;;2.05;1.65;;;32.80;14.50;;;;;;5049716;28;20037;-62
2022/05/05 12:40:41;;;;;;;1.25;1.25;;;33.80;16.10;;;;;;5049889;28;20029;-61
2022/05/05 12:43:09;;;;;;;2.55;1.30;;;34.10;16.50;;;;;;5049725;28;20040;-61
2022/05/05 12:45:36;;;;;;;1.67;1.40;;;33.60;14.70;;;;;;5041068;28;20472;-62
2022/05/05 12:48:04;;;;;;;1.55;1.40;;;35.20;15.90;;;;;;5049252;28;20033;-62
2022/05/05 12:50:52;;;;;;;1.40;1.30;;;36.20;14.90;;;;;;5049363;28;20115;-64
2022/05/05 13:01:41;;;;;;;2.00;1.83;;;32.90;16.10;;;;;;5049815;28;20512;-64
2022/05/05 13:04:12;;;;;;;3.85;1.80;;;33.00;15.70;;;;;;5049294;28;20074;-66
2022/05/05 13:06:39;;;;;;;1.92;1.60;;;31.20;15.10;;;;;;5039270;28;20104;-65
2022/05/05 13:09:08;;;;;;;2.38;2.05;;;30.20;17.90;;;;;;5029073;28;20496;-64
2022/05/05 13:11:34;;;;;;;1.75;1.65;;;29.90;18.50;;;;;;5029228;28;20036;-64
2022/05/05 13:14:02;;;;;;;1.98;1.85;;;30.30;19.70;;;;;;5029280;28;20033;-66
2022/05/05 13:16:28;;;;;;;2.92;2.38;;;30.40;18.80;;;;;;5048133;28;20136;-67
2022/05/05 13:18:54;;;;;;;2.08;1.85;;;30.00;18.30;;;;;;5049086;28;20067;-68
2022/05/05 13:21:19;;;;;;;2.00;1.67;;;28.60;19.20;;;;;;5048303;28;20218;-65
2022/05/05 13:23:45;;;;;;;2.58;2.22;;;27.40;21.70;;;;;;5048423;28;20033;-64
2022/05/05 13:26:11;;;;;;;1.60;1.50;;;27.30;22.80;;;;;;5048357;28;20068;-63
2022/05/05 13:28:38;;;;;;;2.78;1.80;;;26.90;23.80;;;;;;5049072;28;20029;-63
2022/05/05 13:31:04;;;;;;;1.80;1.70;;;26.80;23.20;;;;;;5048659;28;20036;-64
2022/05/05 13:33:29;;;;;;;2.25;2.05;;;26.90;23.80;;;;;;5048178;28;20021;-63
2022/05/05 13:35:55;;;;;;;1.95;1.77;;;26.00;22.60;;;;;;5048405;28;20029;-63
2022/05/05 13:38:23;;;;;;;2.05;1.85;;;25.30;24.10;;;;;;5048319;28;20171;-63
2022/05/05 13:40:49;;;;;;;1.67;1.50;;;24.50;26.20;;;;;;5048299;28;20025;-63